메인 페이지
METAR-TAF:

METAR-TAF

공항 :

Dothan, 앨라배마, 미국

위도: 31-19-17N, 경도: 085-26-59W, 고도: 122m

현재 날씨관측

예보는 1 시간 4분 전, 18:53시(UTC)에 발표되었습니다.
동남동9kt, 순간 최대 풍속 17kt풍과 남남동풍을 오가는
온도 34°C
습도 39%
기압 1017 hPa
시정: 16.1km
고도 5000ft 상공 구름 보통

METAR: KDHN 171853Z 12009G17KT 090V160 10SM SCT050 34/18 A3003 RMK AO2 SLP161 T03440178

시각: 14:57 (19:57 UTC)

예보

예보는 2 시간 37분 전, 17:20시(UTC)에 발표되었습니다.
예보 대상 시간: 17일 18시부터 18일 18시까지 (UTC)
남남동8kt
시정: 10km
고도 4000ft 상공 구름 보통
17일 2000시부터 (UTC)
남남동8kt
시정: 10km
고도 5000ft 상공 구름 많음, 적란운.
고도 25000ft 상공 구름 많음
시계 내 뇌우
18일 0000시부터 (UTC)
남남서5kt
시정: 10km
고도 10000ft 상공 구름 많음
18일 1000시부터 (UTC)
남서3kt
시정: 10km
고도 2500ft 상공 구름 많음
18일 1700시부터 (UTC)
남서5kt
시정: 10km
고도 4000ft 상공 구름 많음, 적란운.
시계 내 뇌우

TAF: KDHN 171720Z 1718/1818 16008KT P6SM SCT040 FM172000 16008KT P6SM VCTS BKN050CB BKN250 FM180000 20005KT P6SM BKN100 FM181000 23003KT P6SM BKN025 FM181700 22005KT P6SM VCTS BKN040CB

4,000개 이상의 공항 관측 자료 및 예보 (METAR 및 TAF 보고).

지도상에서 검색 가능한 기상관측소가 노란 점과 빨간 점으로 표시되어 있습니다.

기상관측소 명을 보려면 표시 위로 마우스를 이동하세요.

날씨 관측과 예보를 보려면 클릭하세요.

지도 변경 : 확대하려면 엑스 표시가 있는 녹색 버튼, 축소하려면 빼기 표시가 있는 녹색 버튼, 다음 페이지의 지도를 보려면 녹색 화살표를 클릭하세요.


METAR-TAF: